Time;durP1;ratioP1;P1;durP2;ratioP2;P2;SDS_P1;SDS_P2;PMS_P1;PMS_P2;Temp;Humidity;BMP_temperature;BMP_pressure;BME280_temperature;BME280_humidity;BME280_pressure;Samples;Min_cycle;Max_cycle;Signal;HPM_P1;HPM_P2
2022/03/26 00:00:17;;;;;;;;;47.50;40.00;;;;;16.22;33.14;102298.19;5057065;28;45895;-79
2022/03/26 00:02:44;;;;;;;;;50.00;40.00;;;;;16.25;33.01;102309.75;5057076;28;45377;-76
2022/03/26 00:05:10;;;;;;;;;52.00;42.75;;;;;16.03;33.27;102278.31;5057232;28;45404;-80
2022/03/26 00:07:35;;;;;;;;;51.75;40.00;;;;;16.30;33.16;102323.09;5057141;28;45567;-77
2022/03/26 00:10:01;;;;;;;;;54.50;42.25;;;;;16.06;33.40;102297.13;5057556;28;45357;-78
2022/03/26 00:12:26;;;;;;;;;48.50;39.75;;;;;16.25;33.59;102336.81;5057068;28;45760;-76
2022/03/26 00:14:52;;;;;;;;;52.00;41.00;;;;;16.07;33.47;102304.31;5057277;28;45327;-77
2022/03/26 00:17:17;;;;;;;;;53.00;38.75;;;;;16.13;33.71;102309.44;5056600;28;45583;-77
2022/03/26 00:19:42;;;;;;;;;54.25;42.75;;;;;16.01;33.46;102302.72;5057631;28;45460;-79
2022/03/26 00:22:08;;;;;;;;;55.50;43.75;;;;;16.15;33.44;102327.38;5057977;28;45253;-77
2022/03/26 00:24:33;;;;;;;;;58.50;43.25;;;;;15.94;33.86;102289.53;5057627;28;45260;-77
2022/03/26 00:26:58;;;;;;;;;57.50;44.00;;;;;16.11;33.64;102324.84;5057077;28;45289;-79
2022/03/26 00:29:24;;;;;;;;;53.50;42.00;;;;;16.09;33.74;102326.72;5056618;28;45674;-77
2022/03/26 05:33:24;;;;;;;;;52.50;40.75;;;;;13.45;39.27;102305.34;5016348;28;45490;-79
2022/03/26 05:35:49;;;;;;;;;54.50;41.50;;;;;13.35;39.70;102295.84;4994266;28;47475;-80
2022/03/26 05:38:15;;;;;;;;;53.25;39.75;;;;;13.41;39.42;102306.41;5007419;28;45431;-78
2022/03/26 05:40:40;;;;;;;;;52.50;42.25;;;;;13.19;39.33;102274.75;5015501;28;45361;-77
2022/03/26 05:43:06;;;;;;;;;43.00;35.50;;;;;13.28;39.45;102300.53;5015240;28;45552;-77
2022/03/26 05:45:31;;;;;;;;;54.50;40.75;;;;;13.42;39.57;102319.84;5014494;28;45647;-78
2022/03/26 05:48:02;;;;;;;;;56.00;39.25;;;;;13.32;39.12;102306.69;5015350;28;45278;-78
2022/03/26 05:50:29;;;;;;;;;57.25;40.75;;;;;13.36;39.41;102321.81;5014724;28;45548;-78
2022/03/26 05:52:55;;;;;;;;;51.00;41.25;;;;;13.38;39.12;102328.94;5014915;28;45480;-77
2022/03/26 05:55:20;;;;;;;;;52.75;42.00;;;;;13.19;39.60;102293.63;4997227;28;46247;-77
2022/03/26 05:57:46;;;;;;;;;58.00;40.50;;;;;13.25;39.42;102312.31;5015286;28;45385;-77
2022/03/26 06:00:12;;;;;;;;;54.00;40.75;;;;;13.16;39.43;102304.50;5014987;28;45396;-77
2022/03/26 06:02:38;;;;;;;;;53.50;39.00;;;;;13.25;39.63;102320.38;5015463;28;45679;-78
2022/03/26 06:05:04;;;;;;;;;56.50;41.50;;;;;13.34;39.81;102342.56;5014847;28;46353;-78
2022/03/26 06:07:30;;;;;;;;;56.75;41.00;;;;;13.27;40.04;102326.56;5015538;28;45351;-78
2022/03/26 06:09:55;;;;;;;;;58.25;45.75;;;;;13.14;39.55;102303.66;5015169;28;45459;-78
2022/03/26 06:12:21;;;;;;;;;54.00;41.50;;;;;13.26;39.16;102326.66;5014360;28;45217;-79
2022/03/26 06:14:46;;;;;;;;;55.75;41.75;;;;;13.30;39.77;102335.50;5014689;28;46091;-76
2022/03/26 06:17:12;;;;;;;;;57.25;41.00;;;;;13.26;39.54;102340.13;5017270;28;45326;-78
2022/03/26 06:19:38;;;;;;;;;49.50;38.75;;;;;13.06;40.04;102303.00;5015822;28;45376;-78
2022/03/26 06:22:04;;;;;;;;;49.50;39.00;;;;;13.25;39.44;102341.94;5014288;28;45565;-79
2022/03/26 06:24:30;;;;;;;;;51.75;40.00;;;;;13.19;39.91;102333.13;4977247;28;46981;-78
2022/03/26 06:26:55;;;;;;;;;52.75;39.50;;;;;13.24;39.57;102355.44;5009959;28;45439;-78
2022/03/26 06:29:21;;;;;;;;;50.25;41.75;;;;;12.91;40.13;102295.41;5014994;28;45467;-77
2022/03/26 06:31:47;;;;;;;;;54.25;39.00;;;;;13.17;39.70;102349.38;4996688;28;45527;-78
2022/03/26 06:34:13;;;;;;;;;43.50;36.00;;;;;13.32;39.53;102355.19;5023058;28;46302;-78
2022/03/26 06:36:39;;;;;;;;;56.00;42.00;;;;;13.27;39.32;102349.06;5034667;28;45536;-78
2022/03/26 06:39:09;;;;;;;;;51.75;41.75;;;;;13.35;39.95;102352.41;5034726;28;45472;-77
2022/03/26 06:41:38;;;;;;;;;46.25;37.50;;;;;13.38;39.57;102360.38;5034515;28;45610;-78
2022/03/26 06:44:10;;;;;;;;;50.75;40.50;;;;;13.29;39.77;102344.50;5034568;28;46023;-78
2022/03/26 06:46:37;;;;;;;;;54.75;40.25;;;;;13.40;39.74;102363.91;5034724;28;45415;-77
2022/03/26 06:49:04;;;;;;;;;57.67;44.33;;;;;13.20;39.86;102325.00;5034488;28;45436;-77
2022/03/26 06:51:29;;;;;;;;;58.00;42.50;;;;;13.24;39.58;102342.84;5035019;28;45436;-77
2022/03/26 06:53:55;;;;;;;;;51.50;41.50;;;;;13.45;39.75;102378.97;5034595;28;45568;-77
2022/03/26 06:56:20;;;;;;;;;54.25;41.50;;;;;13.14;39.63;102318.94;5034156;28;45332;-79
2022/03/26 06:58:45;;;;;;;;;50.75;39.75;;;;;13.49;39.52;102379.78;5016565;28;45539;-78
2022/03/26 07:01:11;;;;;;;;;54.00;41.25;;;;;13.36;39.57;102354.16;5033362;28;45329;-78
2022/03/26 07:03:37;;;;;;;;;51.00;38.00;;;;;13.51;40.05;102384.19;5033969;28;46723;-77
2022/03/26 07:06:03;;;;;;;;;52.25;42.00;;;;;13.17;39.36;102317.06;5034201;28;45356;-78
2022/03/26 07:08:28;;;;;;;;;58.00;43.50;;;;;13.59;39.28;102386.66;5034120;28;45422;-78
2022/03/26 07:10:54;;;;;;;;;51.50;41.00;;;;;13.62;39.24;102390.09;5034254;28;45498;-78
2022/03/26 07:13:19;;;;;;;;;51.75;39.25;;;;;13.63;39.16;102396.38;5033848;28;45919;-78
2022/03/26 07:15:45;;;;;;;;;55.75;44.00;;;;;13.67;39.96;102391.78;5016068;28;45893;-78
2022/03/26 07:18:11;;;;;;;;;53.25;39.50;;;;;13.71;39.74;102398.81;5037490;28;45510;-79
2022/03/26 07:20:37;;;;;;;;;54.50;43.00;;;;;13.70;39.04;102400.63;5034116;28;45269;-78
2022/03/26 07:23:02;;;;;;;;;53.00;42.75;;;;;13.77;39.31;102404.03;5033939;28;45904;-79
2022/03/26 07:25:29;;;;;;;;;55.75;44.00;;;;;13.76;39.01;102399.56;5034009;28;45307;-77
2022/03/26 07:27:55;;;;;;;;;57.33;44.67;;;;;13.71;38.95;102393.44;5034733;28;45253;-77
2022/03/26 07:30:20;;;;;;;;;58.75;41.00;;;;;13.76;39.31;102404.97;5035376;28;45227;-77
2022/03/26 07:32:46;;;;;;;;;56.25;40.00;;;;;13.80;38.73;102407.50;5048001;28;45775;-77
2022/03/26 07:35:11;;;;;;;;;52.75;40.25;;;;;13.84;38.38;102410.97;5033465;28;45677;-77
2022/03/26 07:37:37;;;;;;;;;54.50;41.00;;;;;13.79;38.63;102411.13;5053866;28;45441;-77
2022/03/26 07:40:03;;;;;;;;;52.50;42.00;;;;;13.86;38.20;102414.53;5055580;28;45354;-77
2022/03/26 07:42:29;;;;;;;;;51.75;41.00;;;;;13.89;38.42;102422.50;5055158;28;46468;-75
2022/03/26 07:44:54;;;;;;;;;53.50;39.25;;;;;13.84;37.99;102416.38;5054039;28;45302;-74
2022/03/26 07:47:20;;;;;;;;;51.25;38.75;;;;;13.77;38.08;102401.34;5054425;28;45290;-81
2022/03/26 07:49:45;;;;;;;;;52.25;41.00;;;;;13.77;38.11;102394.13;5058138;28;45373;-77
2022/03/26 07:52:11;;;;;;;;;50.25;41.50;;;;;13.93;37.91;102416.06;5035406;28;46367;-77
2022/03/26 07:54:36;;;;;;;;;59.75;42.00;;;;;13.91;37.74;102412.53;5053543;28;45529;-75
2022/03/26 07:57:02;;;;;;;;;56.75;42.00;;;;;13.92;38.15;102427.78;5054332;28;45202;-79
2022/03/26 07:59:27;;;;;;;;;55.75;41.50;;;;;13.86;37.47;102409.13;5054380;28;45549;-77
2022/03/26 08:01:53;;;;;;;;;50.50;39.00;;;;;13.90;37.78;102403.56;5035612;28;46726;-79
2022/03/26 08:04:18;;;;;;;;;53.75;41.00;;;;;14.05;37.37;102415.66;5054163;28;45369;-81
2022/03/26 08:06:44;;;;;;;;;48.00;31.25;;;;;14.04;37.69;102408.50;5055346;28;45414;-82
2022/03/26 08:09:09;;;;;;;;;57.50;43.75;;;;;14.09;37.59;102414.63;5037126;28;46283;-81
2022/03/26 08:11:34;;;;;;;;;52.25;42.00;;;;;14.06;37.69;102405.75;5047585;28;46042;-78
2022/03/26 08:14:00;;;;;;;;;56.00;43.50;;;;;13.98;37.40;102382.63;5052786;28;45399;-82
2022/03/26 08:16:25;;;;;;;;;45.50;36.25;;;;;14.11;37.42;102387.59;5053105;28;45484;-83
2022/03/26 08:18:51;;;;;;;;;52.50;43.50;;;;;14.27;37.33;102416.69;5054648;28;44929;-81
2022/03/26 08:21:17;;;;;;;;;55.25;42.50;;;;;14.21;37.25;102403.41;5054513;28;45471;-80
2022/03/26 08:23:43;;;;;;;;;44.75;37.25;;;;;14.32;37.63;102405.72;5051749;28;45581;-81
2022/03/26 08:26:22;;;;;;;;;39.00;32.75;;;;;14.47;37.26;102426.81;5049265;28;45502;-79
2022/03/26 08:28:52;;;;;;;;;57.75;39.25;;;;;14.55;36.95;102421.13;5050813;28;45534;-79
2022/03/26 08:31:18;;;;;;;;;52.25;39.25;;;;;14.31;36.98;102367.06;5050926;28;45557;-82
2022/03/26 08:33:45;;;;;;;;;48.00;35.75;;;;;14.45;36.78;102372.03;5038171;28;45978;-81
2022/03/26 08:36:11;;;;;;;;;42.00;33.50;;;;;14.69;36.62;102414.31;5057508;28;45416;-81
2022/03/26 08:38:37;;;;;;;;;54.25;41.75;;;;;14.83;36.13;102424.59;5059287;28;45438;-80
2022/03/26 08:41:04;;;;;;;;;32.00;22.50;;;;;14.80;35.80;102405.81;5059489;28;46191;-83
2022/03/26 08:43:30;;;;;;;;;55.00;42.75;;;;;14.67;35.91;102386.50;5059208;28;45569;-82
2022/03/26 08:45:55;;;;;;;;;54.25;37.75;;;;;14.93;35.95;102412.53;5058486;28;45442;-82
2022/03/26 08:48:20;;;;;;;;;52.75;42.00;;;;;14.98;35.23;102420.44;5058376;28;45267;-82
2022/03/26 08:50:47;;;;;;;;;58.50;43.75;;;;;15.04;36.14;102429.22;5057464;28;45895;-80
2022/03/26 08:53:13;;;;;;;;;55.00;45.00;;;;;14.87;35.66;102384.88;5056824;28;45332;-81
2022/03/26 08:55:39;;;;;;;;;51.50;37.50;;;;;15.01;35.39;102387.94;5036357;28;45364;-81
2022/03/26 08:58:04;;;;;;;;;53.00;38.00;;;;;15.16;35.77;102414.34;5052613;28;45186;-83
2022/03/26 09:00:30;;;;;;;;;56.00;43.75;;;;;15.14;35.45;102392.78;5059271;28;45386;-83
2022/03/26 09:02:56;;;;;;;;;52.75;39.50;;;;;15.36;35.03;102419.00;5059095;28;45438;-81
2022/03/26 09:05:22;;;;;;;;;49.00;40.00;;;;;15.21;34.79;102384.47;5036953;28;45444;-81
2022/03/26 09:07:48;;;;;;;;;53.00;38.00;;;;;15.49;34.41;102420.25;5051877;28;45249;-81
2022/03/26 09:10:14;;;;;;;;;50.75;38.75;;;;;15.39;34.36;102387.34;5036999;28;48499;-81
2022/03/26 09:12:39;;;;;;;;;49.25;37.75;;;;;15.27;34.05;102362.59;5053655;28;45402;-82
2022/03/26 09:15:07;;;;;;;;;53.50;37.50;;;;;15.72;33.50;102420.25;5058919;28;45436;-77
2022/03/26 09:17:33;;;;;;;;;47.75;40.00;;;;;15.79;33.57;102420.88;5056891;28;45326;-78
2022/03/26 09:20:00;;;;;;;;;42.75;35.00;;;;;15.82;33.64;102412.66;5056593;28;46082;-73
2022/03/26 09:22:25;;;;;;;;;50.75;38.00;;;;;15.75;33.41;102393.06;5054873;28;45420;-75
2022/03/26 09:24:51;;;;;;;;;43.25;36.25;;;;;15.95;33.24;102410.31;5054717;28;45301;-76
2022/03/26 09:27:17;;;;;;;;;54.75;38.50;;;;;15.99;33.10;102418.22;5055446;28;45501;-78
2022/03/26 09:29:43;;;;;;;;;25.75;25.75;;;;;15.98;33.50;102405.66;5055576;28;45549;-77
2022/03/26 09:32:08;;;;;;;;;48.00;36.25;;;;;16.06;33.30;102408.03;5055609;28;45485;-77
2022/03/26 09:34:34;;;;;;;;;41.50;36.00;;;;;16.15;32.85;102408.53;5055578;28;45476;-80
2022/03/26 09:36:59;;;;;;;;;38.50;32.00;;;;;15.84;32.85;102349.44;5055246;28;45465;-80
2022/03/26 09:39:25;;;;;;;;;47.25;39.00;;;;;16.11;33.04;102385.25;5055510;28;45251;-79
2022/03/26 09:41:50;;;;;;;;;49.00;37.25;;;;;16.19;33.02;102390.31;5055642;28;45488;-81
2022/03/26 09:44:16;;;;;;;;;52.50;41.50;;;;;16.23;32.93;102398.25;5055089;28;45557;-78
2022/03/26 09:46:42;;;;;;;;;49.50;39.75;;;;;16.20;33.05;102370.44;5055456;28;45512;-78
2022/03/26 09:49:09;;;;;;;;;49.75;40.50;;;;;16.18;32.43;102359.69;5055197;28;45675;-76
2022/03/26 09:51:35;;;;;;;;;41.75;32.25;;;;;16.48;32.77;102408.03;5054933;28;45369;-78
2022/03/26 09:54:01;;;;;;;;;47.00;34.50;;;;;16.56;32.62;102412.16;5055732;28;45603;-78
2022/03/26 09:56:30;;;;;;;;;44.75;35.75;;;;;16.61;32.73;102406.53;5055212;28;45379;-78
2022/03/26 09:58:56;;;;;;;;;42.50;34.25;;;;;16.43;32.56;102364.00;5055442;28;46116;-78
2022/03/26 10:01:22;;;;;;;;;51.50;33.75;;;;;16.66;32.65;102399.13;5054533;28;45485;-80
2022/03/26 10:04:13;;;;;;;;;53.25;40.00;;;;;16.78;32.00;102412.09;5062074;28;45382;-79
2022/03/26 10:06:50;;;;;;;;;49.25;38.00;;;;;16.78;32.15;102400.38;5055676;28;45271;-80
2022/03/26 10:09:40;;;;;;;;;48.75;35.50;;;;;16.84;32.45;102400.13;5054884;28;45322;-79
2022/03/26 10:12:06;;;;;;;;;43.25;38.00;;;;;16.92;32.32;102411.47;5055000;28;45674;-78
2022/03/26 10:14:45;;;;;;;;;50.50;37.25;;;;;16.98;31.86;102405.78;5036838;28;45336;-79
2022/03/26 10:17:12;;;;;;;;;45.75;36.25;;;;;17.01;32.11;102403.78;5057262;28;45486;-79
2022/03/26 10:19:51;;;;;;;;;50.00;37.00;;;;;17.09;32.47;102405.28;5055043;28;46561;-77
2022/03/26 10:22:27;;;;;;;;;40.00;37.00;;;;;17.17;32.33;102406.69;5054751;28;45394;-78
2022/03/26 10:24:54;;;;;;;;;52.50;42.00;;;;;17.25;31.62;102406.31;5055164;28;45264;-78
2022/03/26 10:27:20;;;;;;;;;52.00;40.25;;;;;17.28;31.56;102401.59;5054849;28;45765;-78
2022/03/26 10:29:59;;;;;;;;;45.25;35.50;;;;;17.35;31.79;102399.50;5054750;28;45413;-78
2022/03/26 10:32:39;;;;;;;;;47.75;35.00;;;;;17.42;32.07;102400.97;5032433;28;46290;-73
2022/03/26 10:35:07;;;;;;;;;41.25;35.75;;;;;17.49;31.10;102390.69;5047576;28;45580;-77
2022/03/26 10:37:49;;;;;;;;;52.75;40.50;;;;;17.53;31.29;102393.16;5053349;28;45612;-76
2022/03/26 10:40:32;;;;;;;;;56.50;41.50;;;;;17.58;30.67;102393.84;5054327;28;45428;-76
2022/03/26 10:43:02;;;;;;;;;53.25;40.25;;;;;17.66;30.40;102379.94;5055732;28;45409;-78
2022/03/26 10:45:29;;;;;;;;;51.50;41.25;;;;;17.73;30.62;102381.38;5055004;28;45374;-74
2022/03/26 10:47:57;;;;;;;;;50.50;38.25;;;;;17.81;30.55;102378.28;5054979;28;45366;-73
2022/03/26 10:50:24;;;;;;;;;42.75;38.25;;;;;17.78;30.35;102363.91;5054039;28;45503;-75
2022/03/26 10:52:54;;;;;;;;;53.00;43.00;;;;;17.85;29.82;102355.47;5054455;28;45393;-82
2022/03/26 10:55:21;;;;;;;;;48.00;35.00;;;;;18.05;29.96;102377.91;5053246;28;45439;-74
2022/03/26 10:57:48;;;;;;;;;51.00;41.50;;;;;18.15;29.69;102372.91;5036487;28;45486;-76
2022/03/26 11:00:15;;;;;;;;;56.75;42.50;;;;;18.14;29.95;102354.84;5054069;28;45268;-77
2022/03/26 11:02:41;;;;;;;;;51.25;40.75;;;;;18.12;29.18;102332.31;5054854;28;45321;-80
2022/03/26 11:05:07;;;;;;;;;52.50;42.50;;;;;18.46;29.36;102372.16;5033239;28;45443;-78
2022/03/26 11:07:37;;;;;;;;;44.75;38.00;;;;;18.51;29.38;102359.22;5048103;28;45687;-77
2022/03/26 11:10:08;;;;;;;;;56.25;43.00;;;;;18.68;29.28;102359.25;5054915;28;46055;-80
2022/03/26 11:12:33;;;;;;;;;54.50;38.75;;;;;18.88;28.73;102369.88;5054429;28;45334;-79
2022/03/26 11:15:04;;;;;;;;;54.00;41.00;;;;;19.01;28.93;102348.34;5054470;28;45358;-78
2022/03/26 11:17:38;;;;;;;;;50.50;39.50;;;;;19.22;28.18;102357.16;5057996;28;45351;-77
2022/03/26 11:20:22;;;;;;;;;53.00;40.50;;;;;19.44;28.77;102354.09;5054397;28;46433;-80
2022/03/26 11:23:18;;;;;;;;;54.25;41.25;;;;;19.66;27.41;102351.91;5054263;28;45308;-77
2022/03/26 11:26:14;;;;;;;;;47.00;37.25;;;;;19.93;27.13;102339.38;5055311;28;45429;-77
2022/03/26 11:29:13;;;;;;;;;51.50;40.75;;;;;20.22;26.73;102340.34;5056274;28;45639;-74
2022/03/26 11:32:00;;;;;;;;;45.25;33.00;;;;;20.43;25.88;102334.56;5054322;28;46311;-77
2022/03/26 11:34:32;;;;;;;;;53.25;39.75;;;;;20.41;25.04;102296.56;5055903;28;45519;-77
2022/03/26 11:37:09;;;;;;;;;53.25;38.50;;;;;20.87;25.07;102332.66;5055780;28;45239;-81
2022/03/26 11:39:47;;;;;;;;;50.25;37.00;;;;;20.95;24.85;102316.69;5056096;28;45544;-78
2022/03/26 11:42:12;;;;;;;;;52.75;39.50;;;;;21.30;25.11;102330.78;5054187;28;45369;-77
2022/03/26 11:44:45;;;;;;;;;51.00;40.75;;;;;21.56;24.41;102320.00;5055156;28;45645;-77
2022/03/26 11:53:09;;;;;;;;;51.75;40.00;;;;;22.71;22.96;102316.53;5059796;28;45809;-79
2022/03/26 11:55:43;;;;;;;;;54.75;41.75;;;;;23.11;21.96;102303.59;5058281;28;45283;-75
2022/03/26 11:58:22;;;;;;;;;57.25;42.00;;;;;23.56;21.71;102315.75;5039696;28;45415;-77
2022/03/26 12:01:02;;;;;;;;;48.75;38.75;;;;;23.86;20.92;102305.16;5036320;28;46286;-78
2022/03/26 12:03:41;;;;;;;;;51.75;38.75;;;;;24.14;20.98;102292.94;5057802;28;45801;-79
2022/03/26 12:08:57;;;;;;;;;47.50;39.50;;;;;24.66;19.69;102305.28;5057620;28;45505;-79
2022/03/26 12:11:26;;;;;;;;;52.00;41.25;;;;;24.97;18.83;102322.88;5049231;28;45754;-80
2022/03/26 12:14:03;;;;;;;;;46.75;38.00;;;;;25.08;19.40;102289.94;5053497;28;45345;-78
2022/03/26 12:16:50;;;;;;;;;50.75;41.75;;;;;25.46;19.58;102312.31;5055635;28;45367;-79
2022/03/26 12:19:50;;;;;;;;;47.50;37.00;;;;;25.61;19.26;102285.47;5055885;28;45357;-80
2022/03/26 12:22:32;;;;;;;;;49.00;40.50;;;;;25.89;19.16;102282.09;5047116;28;45498;-79
2022/03/26 12:25:02;;;;;;;;;28.50;26.00;;;;;26.30;18.51;102285.91;5055546;28;45470;-79
2022/03/26 12:27:28;;;;;;;;;50.25;39.00;;;;;26.70;18.05;102289.63;5034315;28;45440;-80
2022/03/26 12:29:56;;;;;;;;;55.00;41.50;;;;;27.11;16.38;102285.91;5046346;28;45307;-78
2022/03/26 12:32:29;;;;;;;;;53.25;39.50;;;;;27.61;16.48;102266.59;5056412;28;45429;-85
2022/03/26 12:35:02;;;;;;;;;50.75;40.00;;;;;28.59;15.68;102299.41;5057559;28;45331;-82
2022/03/26 12:37:28;;;;;;;;;50.00;40.75;;;;;29.24;14.88;102259.78;5056391;28;45398;-81
2022/03/26 12:39:54;;;;;;;;;52.25;38.50;;;;;30.19;14.30;102277.69;5036160;28;45455;-82
2022/03/26 12:42:20;;;;;;;;;46.00;37.00;;;;;30.85;13.64;102266.88;5056247;28;45571;-81
2022/03/26 12:44:46;;;;;;;;;52.00;40.00;;;;;31.44;13.39;102256.72;5035447;28;46136;-82
2022/03/26 12:47:21;;;;;;;;;44.00;36.25;;;;;32.28;13.02;102270.31;5056131;28;45315;-83
2022/03/26 12:49:51;;;;;;;;;47.25;35.75;;;;;32.84;12.85;102238.78;5057000;28;45493;-82
2022/03/26 12:52:22;;;;;;;;;46.00;36.00;;;;;33.64;11.63;102253.28;5035746;28;46649;-81
2022/03/26 12:54:59;;;;;;;;;47.25;36.00;;;;;34.06;11.33;102247.22;5051755;28;45436;-83
2022/03/26 12:58:56;;;;;;;;;44.50;31.75;;;;;34.64;10.48;102255.88;5056933;28;45253;-83
2022/03/26 13:00:12;;;;;;;;;47.75;36.50;;;;;35.11;10.67;102242.41;5055230;28;45580;-84
2022/03/26 13:02:37;;;;;;;;;44.50;36.25;;;;;35.32;10.48;102252.75;5057873;28;45783;-80
2022/03/26 13:05:06;;;;;;;;;44.75;34.25;;;;;35.61;11.17;102249.88;5056703;28;45426;-77
2022/03/26 13:07:37;;;;;;;;;46.00;38.00;;;;;35.85;10.32;102251.44;5056248;28;45482;-77
2022/03/26 13:10:03;;;;;;;;;47.50;37.25;;;;;36.07;10.17;102232.72;5056276;28;45403;-78
2022/03/26 13:12:30;;;;;;;;;40.00;33.00;;;;;36.41;10.50;102237.50;5056196;28;45510;-79
2022/03/26 13:14:56;;;;;;;;;32.00;29.25;;;;;36.62;9.52;102251.41;5056510;28;46298;-78
2022/03/26 13:17:24;;;;;;;;;38.00;33.00;;;;;36.55;9.94;102227.31;5060044;28;45304;-78
2022/03/26 13:19:55;;;;;;;;;40.25;33.00;;;;;36.68;9.72;102239.44;5056483;28;45279;-78
2022/03/26 13:22:20;;;;;;;;;39.50;33.25;;;;;36.82;9.43;102237.59;5055869;28;45574;-78
2022/03/26 13:24:53;;;;;;;;;38.50;33.50;;;;;37.04;9.44;102236.41;5056284;28;45433;-78
2022/03/26 13:27:21;;;;;;;;;44.75;35.25;;;;;36.99;9.45;102233.38;5055977;28;45489;-80
2022/03/26 13:29:47;;;;;;;;;44.75;33.50;;;;;37.08;8.83;102225.66;5029860;28;45462;-78
2022/03/26 13:32:12;;;;;;;;;40.25;33.50;;;;;37.21;9.33;102208.09;5053945;28;45529;-81
2022/03/26 13:34:40;;;;;;;;;42.75;31.75;;;;;37.24;8.94;102202.06;5054042;28;45943;-79
2022/03/26 13:37:12;;;;;;;;;42.25;32.75;;;;;37.16;9.33;102177.09;5053810;28;45684;-81
2022/03/26 13:39:39;;;;;;;;;36.75;32.00;;;;;37.37;9.38;102190.91;5053888;28;45321;-81
2022/03/26 13:42:08;;;;;;;;;38.50;31.00;;;;;37.33;9.16;102167.25;5043776;28;46320;-79
2022/03/26 13:44:34;;;;;;;;;33.50;31.25;;;;;37.39;9.16;102172.84;5053968;28;46035;-85
2022/03/26 13:47:00;;;;;;;;;43.75;35.25;;;;;37.54;8.80;102195.03;5034117;28;45569;-81
2022/03/26 13:49:35;;;;;;;;;34.50;31.00;;;;;37.63;9.20;102196.56;5054383;28;45560;-84
2022/03/26 13:52:21;;;;;;;;;36.25;30.25;;;;;37.45;8.95;102190.69;5053161;28;46150;-83
2022/03/26 13:54:46;;;;;;;;;33.75;32.25;;;;;37.50;8.94;102180.63;5053528;28;45564;-81
2022/03/26 13:57:12;;;;;;;;;38.00;32.50;;;;;37.50;9.25;102188.16;5053572;28;45299;-77
2022/03/26 13:59:42;;;;;;;;;40.25;31.75;;;;;37.41;8.86;102203.41;5054894;28;45862;-77
2022/03/26 14:02:08;;;;;;;;;34.75;29.75;;;;;37.30;8.78;102193.69;5054921;28;45452;-76
2022/03/26 14:04:35;;;;;;;;;33.00;23.25;;;;;37.23;8.73;102172.38;5054976;28;46233;-77
2022/03/26 14:07:00;;;;;;;;;36.50;29.50;;;;;37.41;8.75;102189.41;5054750;28;45380;-79
2022/03/26 14:09:29;;;;;;;;;38.50;32.00;;;;;37.30;8.25;102190.91;5055294;28;45998;-78
2022/03/26 14:11:55;;;;;;;;;31.50;28.00;;;;;37.23;9.50;102190.03;5054191;28;45561;-75
2022/03/26 14:14:21;;;;;;;;;37.25;32.75;;;;;37.26;8.54;102191.56;5054460;28;46019;-77
2022/03/26 14:16:46;;;;;;;;;29.75;26.00;;;;;37.25;9.48;102170.25;5054430;28;45342;-77
2022/03/26 14:19:12;;;;;;;;;36.25;31.50;;;;;37.08;9.13;102167.81;5058194;28;45493;-77
2022/03/26 14:21:38;;;;;;;;;29.25;28.75;;;;;37.03;9.20;102178.75;5054321;28;45540;-74
2022/03/26 14:24:04;;;;;;;;;39.00;28.75;;;;;37.06;9.10;102194.25;5054815;28;45346;-76
2022/03/26 14:26:29;;;;;;;;;40.00;31.50;;;;;36.81;8.80;102171.56;5054121;28;45322;-76
2022/03/26 14:28:55;;;;;;;;;37.75;30.75;;;;;36.84;9.21;102182.31;5054657;28;45224;-76
2022/03/26 14:31:21;;;;;;;;;30.75;27.75;;;;;36.82;9.63;102184.47;5054425;28;45350;-80
2022/03/26 14:33:46;;;;;;;;;31.25;29.50;;;;;36.43;9.03;102167.47;5054360;28;46171;-78
2022/03/26 14:36:12;;;;;;;;;57.50;35.50;;;;;36.24;9.98;102188.66;5054340;28;45413;-76
2022/03/26 14:38:37;;;;;;;;;35.50;30.50;;;;;36.11;9.28;102185.72;5054088;28;45491;-75
2022/03/26 14:41:03;;;;;;;;;32.00;26.50;;;;;35.95;9.48;102172.94;5054489;28;45613;-75
2022/03/26 14:43:29;;;;;;;;;35.00;28.25;;;;;35.90;11.08;102170.72;5054404;28;45567;-74
2022/03/26 14:45:55;;;;;;;;;42.50;31.75;;;;;35.86;9.26;102188.09;5054348;28;45435;-75
2022/03/26 14:48:21;;;;;;;;;34.25;27.25;;;;;35.74;9.11;102184.13;5054235;28;45388;-76
2022/03/26 14:50:47;;;;;;;;;38.00;30.00;;;;;35.55;9.06;102180.94;5054662;28;45371;-74
2022/03/26 14:53:12;;;;;;;;;31.25;26.50;;;;;35.28;9.69;102167.78;5053759;28;46911;-76
2022/03/26 14:55:38;;;;;;;;;37.00;30.50;;;;;35.07;10.49;102174.16;5052927;28;45375;-78
2022/03/26 14:58:04;;;;;;;;;35.25;30.25;;;;;34.75;9.64;102158.78;5052559;28;45607;-77
2022/03/26 15:00:29;;;;;;;;;26.75;25.75;;;;;34.40;9.36;102143.69;5052792;28;45474;-77
2022/03/26 15:02:55;;;;;;;;;32.50;29.50;;;;;34.41;10.55;102170.50;5052759;28;45481;-76
2022/03/26 15:05:24;;;;;;;;;29.25;26.75;;;;;34.28;11.44;102161.09;5031490;28;45788;-73
2022/03/26 15:07:50;;;;;;;;;27.75;24.25;;;;;34.02;10.91;102137.34;5047565;28;45387;-72
2022/03/26 15:10:16;;;;;;;;;32.50;30.00;;;;;33.88;10.93;102140.94;5052532;28;45985;-70
2022/03/26 15:12:42;;;;;;;;;23.25;21.00;;;;;33.78;10.13;102159.81;5052018;28;45336;-76
2022/03/26 15:15:08;;;;;;;;;30.25;26.75;;;;;33.40;10.67;102136.69;5030730;28;45615;-77
2022/03/26 15:17:34;;;;;;;;;32.25;28.75;;;;;33.17;11.02;102150.56;5048466;28;45236;-73
2022/03/26 15:19:59;;;;;;;;;29.25;26.00;;;;;32.95;10.97;102156.94;5052933;28;45757;-74
2022/03/26 15:22:25;;;;;;;;;26.25;23.25;;;;;32.62;11.05;102153.44;5052196;28;45307;-72
2022/03/26 15:24:50;;;;;;;;;33.25;26.75;;;;;32.39;11.18;102145.03;5056186;28;45362;-73
2022/03/26 15:27:16;;;;;;;;;27.50;24.00;;;;;32.05;11.33;102130.53;5055580;28;45766;-73
2022/03/26 15:29:41;;;;;;;;;25.00;22.75;;;;;32.05;11.16;102158.28;5055930;28;45397;-79
2022/03/26 15:32:08;;;;;;;;;16.00;16.00;;;;;31.84;10.75;102140.28;5055275;28;46014;-72
2022/03/26 15:34:34;;;;;;;;;34.00;28.75;;;;;31.83;11.51;102138.56;5056001;28;45430;-72
2022/03/26 15:37:00;;;;;;;;;35.25;28.00;;;;;31.87;11.24;102152.94;5055319;28;45429;-72
2022/03/26 15:39:25;;;;;;;;;33.75;30.25;;;;;31.95;11.18;102156.56;5055557;28;45380;-72
2022/03/26 15:41:51;;;;;;;;;31.75;26.50;;;;;31.90;10.85;102155.38;5056109;28;45425;-73
2022/03/26 15:44:16;;;;;;;;;30.00;27.00;;;;;31.81;11.20;102148.09;5055694;28;45371;-73
2022/03/26 15:46:42;;;;;;;;;27.75;25.25;;;;;31.86;11.35;102148.44;5056130;28;45506;-72
2022/03/26 15:49:07;;;;;;;;;28.75;22.75;;;;;31.98;11.12;102154.50;5055514;28;45373;-74
2022/03/26 15:51:33;;;;;;;;;27.00;27.00;;;;;31.94;10.36;102140.97;5055355;28;46191;-74
2022/03/26 15:53:58;;;;;;;;;30.00;23.75;;;;;31.81;10.29;102140.66;5055197;28;45310;-73
2022/03/26 15:56:24;;;;;;;;;31.00;29.75;;;;;31.66;10.68;102145.16;5055687;28;45288;-74
2022/03/26 15:58:50;;;;;;;;;27.75;27.25;;;;;31.52;10.58;102149.47;5055371;28;45587;-78
2022/03/26 16:01:15;;;;;;;;;28.25;25.50;;;;;31.43;10.81;102146.88;5055300;28;45633;-78
2022/03/26 16:03:40;;;;;;;;;29.75;27.50;;;;;31.32;10.82;102139.75;5055330;28;45410;-80
2022/03/26 16:06:06;;;;;;;;;26.50;24.00;;;;;31.16;10.92;102125.88;5055292;28;45256;-78
2022/03/26 16:08:34;;;;;;;;;28.00;24.50;;;;;31.11;10.87;102129.19;5055078;28;45418;-75
2022/03/26 16:11:00;;;;;;;;;26.75;22.75;;;;;31.09;11.36;102127.63;5055408;28;45448;-75
2022/03/26 16:13:26;;;;;;;;;26.00;23.00;;;;;30.95;11.08;102120.81;5055321;28;45524;-78
2022/03/26 16:15:52;;;;;;;;;19.50;19.50;;;;;30.90;11.39;102117.66;5055573;28;45523;-78
2022/03/26 16:18:18;;;;;;;;;22.75;20.00;;;;;30.88;10.95;102125.28;5057729;28;45465;-78
2022/03/26 16:20:44;;;;;;;;;24.25;23.25;;;;;30.78;10.93;102124.59;5055011;28;45460;-75
2022/03/26 16:23:11;;;;;;;;;28.00;24.25;;;;;30.80;11.08;102130.78;5054777;28;45336;-77